Time;durP1;ratioP1;P1;durP2;ratioP2;P2;SDS_P1;SDS_P2;PMS_P1;PMS_P2;Temp;Humidity;BMP_temperature;BMP_pressure;BME280_temperature;BME280_humidity;BME280_pressure;Samples;Min_cycle;Max_cycle;Signal;HPM_P1;HPM_P2
2023/03/27 00:01:46;;;;;;;29.57;12.87;;;8.50;99.90;;;;;;5065302;28;20483;-60
2023/03/27 00:04:14;;;;;;;24.03;10.03;;;8.50;99.90;;;;;;5084102;28;20535;-60
2023/03/27 00:06:44;;;;;;;18.57;9.10;;;8.50;99.90;;;;;;5069961;28;20478;-60
2023/03/27 00:09:11;;;;;;;18.60;7.73;;;8.50;99.90;;;;;;5065953;28;20554;-60
2023/03/27 00:11:39;;;;;;;22.83;10.03;;;8.60;99.90;;;;;;5077342;28;20494;-60
2023/03/27 00:14:06;;;;;;;19.07;10.03;;;8.60;99.90;;;;;;5060643;28;20476;-60
2023/03/27 00:16:32;;;;;;;21.93;8.67;;;8.60;99.90;;;;;;5075901;28;20540;-60
2023/03/27 00:18:59;;;;;;;22.47;11.20;;;8.60;99.90;;;;;;5068909;28;20820;-60
2023/03/27 00:21:27;;;;;;;18.63;8.97;;;8.50;99.90;;;;;;5050599;28;21323;-60
2023/03/27 00:23:55;;;;;;;29.43;10.60;;;8.60;99.90;;;;;;5074208;28;21227;-60
2023/03/27 00:26:22;;;;;;;17.50;9.23;;;8.50;99.90;;;;;;5071426;28;20466;-59
2023/03/27 00:28:50;;;;;;;34.27;14.77;;;8.50;99.90;;;;;;5058864;28;20527;-60
2023/03/27 00:31:17;;;;;;;15.97;8.10;;;8.50;99.90;;;;;;5066322;28;20589;-60
2023/03/27 00:33:43;;;;;;;24.40;11.20;;;8.50;99.90;;;;;;5066163;28;20490;-59
2023/03/27 00:36:11;;;;;;;18.53;9.23;;;8.40;99.90;;;;;;5071464;28;20481;-60
2023/03/27 00:38:39;;;;;;;20.70;8.50;;;8.40;99.90;;;;;;5059135;28;20493;-60
2023/03/27 00:41:06;;;;;;;14.57;8.40;;;8.40;99.90;;;;;;5075632;28;20487;-60
2023/03/27 00:43:34;;;;;;;20.47;10.40;;;;;;;;;;5056833;28;20477;-60
2023/03/27 00:46:07;;;;;;;25.13;12.50;;;8.40;99.90;;;;;;5076523;28;20480;-60
2023/03/27 00:48:36;;;;;;;24.30;11.40;;;8.30;99.90;;;;;;5060063;28;20581;-60
2023/03/27 00:51:05;;;;;;;33.70;12.37;;;8.20;99.90;;;;;;5079279;28;20510;-59
2023/03/27 00:53:32;;;;;;;25.90;11.47;;;8.20;99.90;;;;;;5070746;28;20486;-60
2023/03/27 00:56:02;;;;;;;28.53;15.50;;;8.20;99.90;;;;;;5067566;28;21785;-60
2023/03/27 00:58:31;;;;;;;26.67;11.80;;;8.20;99.90;;;;;;5059383;28;21071;-60
2023/03/27 01:00:59;;;;;;;35.63;16.93;;;8.10;99.90;;;;;;5074417;28;20482;-60
2023/03/27 01:03:30;;;;;;;33.30;16.27;;;8.00;99.90;;;;;;5067492;28;20529;-60
2023/03/27 01:06:00;;;;;;;33.93;16.17;;;8.00;99.90;;;;;;5066996;28;20474;-60
2023/03/27 01:08:29;;;;;;;16.10;9.10;;;8.00;99.90;;;;;;5071472;28;20894;-59
2023/03/27 01:11:10;;;;;;;34.87;16.30;;;7.90;99.90;;;;;;5050407;28;20536;-59
2023/03/27 01:13:50;;;;;;;23.10;12.10;;;7.80;99.90;;;;;;5077942;28;20489;-59
2023/03/27 01:16:23;;;;;;;29.20;12.40;;;7.80;99.90;;;;;;5051909;28;20477;-59
2023/03/27 01:19:05;;;;;;;39.37;17.30;;;7.80;99.90;;;;;;5076485;28;20482;-60
2023/03/27 01:22:14;;;;;;;23.10;11.70;;;7.80;99.90;;;;;;5071092;28;20944;-59
2023/03/27 01:25:07;;;;;;;34.57;14.20;;;7.70;99.60;;;;;;5029723;28;20485;-60
2023/03/27 01:28:04;;;;;;;23.13;9.03;;;7.70;99.50;;;;;;5060211;27;20489;-60
2023/03/27 01:30:35;;;;;;;24.83;14.37;;;7.70;99.70;;;;;;5054989;27;20814;-60
2023/03/27 01:33:27;;;;;;;21.00;10.70;;;7.60;99.30;;;;;;5056080;28;20481;-60
2023/03/27 01:36:24;;;;;;;35.37;17.93;;;7.60;99.30;;;;;;5066831;28;20455;-60
2023/03/27 01:39:16;;;;;;;38.13;20.47;;;7.60;99.30;;;;;;5056671;28;20481;-60
2023/03/27 01:41:51;;;;;;;35.93;15.77;;;7.50;99.10;;;;;;5059734;28;20478;-59
2023/03/27 01:44:29;;;;;;;27.60;14.20;;;5.60;98.30;;;;;;5070590;28;21077;-60
2023/03/27 01:47:01;;;;;;;29.27;15.27;;;7.60;99.40;;;;;;5061779;28;20817;-59
2023/03/27 01:49:30;;;;;;;25.57;13.63;;;7.70;99.50;;;;;;5076999;28;20497;-60
2023/03/27 01:52:01;;;;;;;36.17;17.40;;;7.70;99.20;;;;;;5085602;28;20482;-60
2023/03/27 01:54:32;;;;;;;30.73;14.27;;;7.70;98.90;;;;;;5083119;28;20523;-59
2023/03/27 01:57:04;;;;;;;24.53;12.60;;;7.60;98.80;;;;;;5053957;28;20482;-59
2023/03/27 01:59:36;;;;;;;26.63;14.10;;;6.70;98.20;;;;;;5080414;28;20497;-60
2023/03/27 02:02:08;;;;;;;33.17;14.37;;;7.60;98.50;;;;;;5058035;27;20478;-60
2023/03/27 02:04:41;;;;;;;16.30;8.70;;;7.50;98.00;;;;;;5078394;28;20471;-60
2023/03/27 02:07:14;;;;;;;13.43;8.37;;;7.50;98.30;;;;;;5069456;28;20535;-59
2023/03/27 02:09:45;;;;;;;30.37;12.63;;;7.40;97.80;;;;;;5077881;28;20559;-60
2023/03/27 02:12:18;;;;;;;19.73;10.50;;;7.30;97.60;;;;;;5061586;28;20493;-60
2023/03/27 02:14:51;;;;;;;30.40;12.17;;;7.30;97.50;;;;;;5075873;28;20471;-59
2023/03/27 02:17:19;;;;;;;35.27;10.90;;;7.30;97.60;;;;;;5074673;28;20598;-59
2023/03/27 02:19:59;;;;;;;32.60;13.60;;;7.30;97.30;;;;;;5070816;28;20983;-59
2023/03/27 02:22:27;;;;;;;21.10;8.23;;;7.20;96.70;;;;;;5068089;28;20555;-60
2023/03/27 02:24:56;;;;;;;27.20;13.13;;;7.10;96.30;;;;;;5062931;28;20504;-59
2023/03/27 02:27:31;;;;;;;18.70;8.77;;;7.00;96.10;;;;;;5088741;28;20585;-59
2023/03/27 02:30:09;;;;;;;33.47;15.07;;;7.10;96.40;;;;;;5051245;28;20487;-59
2023/03/27 02:32:44;;;;;;;22.27;10.97;;;7.20;96.70;;;;;;5056479;28;21012;-60
2023/03/27 02:35:28;;;;;;;17.23;8.00;;;7.10;96.20;;;;;;5070680;28;20484;-59
2023/03/27 02:38:02;;;;;;;23.40;10.63;;;7.10;95.60;;;;;;5071504;28;20475;-59
2023/03/27 02:40:40;;;;;;;22.90;9.40;;;7.10;95.60;;;;;;5078283;28;20993;-60
2023/03/27 02:43:10;;;;;;;27.50;9.60;;;7.10;95.40;;;;;;5068795;28;20485;-59
2023/03/27 02:45:47;;;;;;;31.83;9.17;;;7.10;95.40;;;;;;5078049;28;21034;-59
2023/03/27 02:48:20;;;;;;;19.03;9.77;;;7.10;95.20;;;;;;5059284;28;20711;-59
2023/03/27 02:50:54;;;;;;;22.50;7.77;;;6.90;94.20;;;;;;5073009;28;20477;-60
2023/03/27 02:53:25;;;;;;;24.73;7.97;;;6.90;94.40;;;;;;5069889;28;20518;-60
2023/03/27 02:55:56;;;;;;;30.90;12.40;;;6.90;93.80;;;;;;5052029;28;20482;-60
2023/03/27 02:58:31;;;;;;;16.33;7.97;;;6.90;94.00;;;;;;5067260;28;20496;-59
2023/03/27 03:00:59;;;;;;;30.43;12.93;;;6.80;93.60;;;;;;5036057;28;21299;-59
2023/03/27 03:03:30;;;;;;;22.30;8.13;;;6.90;94.00;;;;;;5080603;28;20483;-59
2023/03/27 03:05:58;;;;;;;23.40;10.23;;;6.90;94.30;;;;;;5067943;28;20958;-60
2023/03/27 03:08:29;;;;;;;15.67;6.53;;;6.90;93.80;;;;;;5055409;28;20478;-58
2023/03/27 03:11:02;;;;;;;21.83;11.27;;;6.80;93.90;;;;;;5075031;28;20506;-59
2023/03/27 03:13:29;;;;;;;15.57;8.77;;;6.70;93.50;;;;;;5052941;28;20631;-59
2023/03/27 03:15:55;;;;;;;26.27;12.23;;;6.80;94.20;;;;;;5059331;28;20866;-60
2023/03/27 03:18:23;;;;;;;29.53;10.37;;;6.80;93.90;;;;;;5088940;28;20843;-59
2023/03/27 03:20:53;;;;;;;34.57;16.73;;;6.80;94.20;;;;;;5089840;28;20546;-59
2023/03/27 03:23:20;;;;;;;22.93;9.90;;;6.90;94.00;;;;;;5073765;28;20864;-59
2023/03/27 03:25:49;;;;;;;22.03;11.00;;;6.70;93.70;;;;;;5062261;28;20552;-60
2023/03/27 03:28:17;;;;;;;16.80;8.40;;;6.70;93.40;;;;;;5097804;28;21102;-59
2023/03/27 03:30:49;;;;;;;22.50;9.23;;;6.70;93.40;;;;;;5084738;28;21025;-59
2023/03/27 03:33:16;;;;;;;17.40;9.23;;;6.70;93.70;;;;;;5083349;28;20481;-59
2023/03/27 03:35:46;;;;;;;10.17;5.53;;;;;;;;;;5073365;27;20570;-59
2023/03/27 03:38:13;;;;;;;14.07;7.77;;;6.60;92.60;;;;;;5085664;27;20549;-59
2023/03/27 03:40:40;;;;;;;29.90;10.30;;;6.60;92.60;;;;;;5077169;28;20481;-59
2023/03/27 03:43:07;;;;;;;19.37;9.03;;;6.60;93.00;;;;;;5068811;28;20923;-59
2023/03/27 03:45:35;;;;;;;18.33;7.50;;;6.60;92.60;;;;;;5072647;28;20485;-59
2023/03/27 03:48:01;;;;;;;22.60;8.40;;;6.50;92.70;;;;;;5085734;28;21149;-59
2023/03/27 03:50:28;;;;;;;14.40;7.90;;;6.50;92.50;;;;;;5084606;28;20485;-59
2023/03/27 03:52:55;;;;;;;23.60;11.10;;;6.40;92.20;;;;;;5079664;28;20501;-59
2023/03/27 03:55:21;;;;;;;15.03;6.70;;;6.30;92.00;;;;;;5079489;28;20784;-59
2023/03/27 03:57:49;;;;;;;26.23;10.47;;;;;;;;;;5093146;28;20477;-59
2023/03/27 04:00:17;;;;;;;17.93;8.57;;;6.20;92.10;;;;;;5086406;28;20528;-60
2023/03/27 04:02:45;;;;;;;25.33;10.60;;;6.20;92.10;;;;;;5060612;27;20885;-59
2023/03/27 04:05:12;;;;;;;13.63;5.93;;;6.20;92.50;;;;;;5076521;27;20482;-59
2023/03/27 04:07:39;;;;;;;13.00;7.20;;;6.10;91.90;;;;;;5083346;28;20481;-60
2023/03/27 04:10:08;;;;;;;14.30;7.10;;;6.00;91.90;;;;;;5065164;28;20478;-59
2023/03/27 04:12:34;;;;;;;18.83;8.60;;;5.90;91.80;;;;;;5050925;28;20578;-59
2023/03/27 04:15:01;;;;;;;19.57;7.20;;;5.90;91.90;;;;;;5083545;28;20520;-59
2023/03/27 04:17:28;;;;;;;16.03;6.03;;;5.80;91.90;;;;;;5059913;28;20478;-59
2023/03/27 04:19:56;;;;;;;28.97;9.23;;;5.70;92.00;;;;;;5074276;28;20494;-59
2023/03/27 04:22:22;;;;;;;24.03;8.27;;;5.70;92.20;;;;;;5068344;28;20497;-59
2023/03/27 04:24:49;;;;;;;30.40;11.37;;;5.60;92.10;;;;;;5081506;28;20769;-60
2023/03/27 04:27:16;;;;;;;23.93;7.23;;;5.50;92.00;;;;;;5082521;28;20480;-60
2023/03/27 04:29:46;;;;;;;17.70;7.33;;;5.40;92.10;;;;;;5083862;28;20496;-59
2023/03/27 04:32:17;;;;;;;21.77;8.23;;;5.30;92.00;;;;;;5081174;28;20470;-59
2023/03/27 04:34:44;;;;;;;25.17;6.27;;;5.30;92.20;;;;;;5062846;28;21005;-59
2023/03/27 04:37:13;;;;;;;13.07;5.43;;;5.30;91.90;;;;;;5067354;28;20473;-59
2023/03/27 04:39:41;;;;;;;21.70;7.00;;;5.20;91.80;;;;;;5078118;28;20485;-59
2023/03/27 04:42:08;;;;;;;42.70;8.43;;;5.10;91.80;;;;;;5079913;28;20577;-59
2023/03/27 04:44:36;;;;;;;18.20;7.20;;;5.10;91.60;;;;;;5070045;28;20572;-59
2023/03/27 04:47:03;;;;;;;15.83;6.53;;;5.00;91.50;;;;;;5067317;28;20545;-59
2023/03/27 04:49:37;;;;;;;27.87;7.70;;;5.00;91.50;;;;;;5074305;28;20474;-59
2023/03/27 04:52:04;;;;;;;19.90;7.33;;;5.00;91.50;;;;;;5073396;28;20583;-59
2023/03/27 04:54:32;;;;;;;17.27;7.03;;;5.00;91.80;;;;;;5081323;28;20852;-59
2023/03/27 04:57:00;;;;;;;20.97;7.73;;;5.00;91.30;;;;;;5082067;28;20478;-59
2023/03/27 04:59:29;;;;;;;22.97;6.90;;;5.00;91.50;;;;;;5072013;28;20480;-59
2023/03/27 05:01:57;;;;;;;36.53;10.87;;;5.00;91.60;;;;;;5070801;28;20472;-59
2023/03/27 05:04:25;;;;;;;21.27;5.73;;;4.90;91.40;;;;;;5069375;28;20590;-59
2023/03/27 05:06:52;;;;;;;21.37;8.40;;;4.90;91.40;;;;;;5052317;28;20462;-60
2023/03/27 05:09:19;;;;;;;26.27;5.03;;;3.80;90.90;;;;;;5089439;28;20477;-59
2023/03/27 05:11:48;;;;;;;24.67;10.47;;;4.80;91.80;;;;;;5076861;28;20483;-60
2023/03/27 05:14:15;;;;;;;16.70;6.17;;;4.70;91.60;;;;;;5073255;28;20489;-59
2023/03/27 05:16:42;;;;;;;9.27;4.50;;;4.70;91.50;;;;;;5065547;28;20470;-59
2023/03/27 05:19:10;;;;;;;19.70;6.63;;;4.70;91.50;;;;;;5064775;28;20485;-59
2023/03/27 05:21:36;;;;;;;14.00;7.00;;;4.80;91.70;;;;;;5069140;28;20478;-60
2023/03/27 05:24:04;;;;;;;18.80;5.23;;;4.70;91.90;;;;;;5093505;28;20888;-59
2023/03/27 05:26:32;;;;;;;18.57;5.83;;;4.80;91.90;;;;;;5064262;28;20856;-59
2023/03/27 05:29:00;;;;;;;35.60;11.90;;;4.80;91.90;;;;;;5072323;28;20582;-59
2023/03/27 05:31:27;;;;;;;17.97;6.53;;;4.90;92.60;;;;;;5076878;28;20475;-59
2023/03/27 05:33:54;;;;;;;30.77;10.30;;;4.90;92.40;;;;;;5058923;28;20482;-59
2023/03/27 05:36:21;;;;;;;16.70;6.47;;;4.90;92.50;;;;;;5072476;28;20920;-59
2023/03/27 05:38:49;;;;;;;47.00;12.60;;;4.80;92.20;;;;;;5063658;28;20561;-59
2023/03/27 05:41:16;;;;;;;20.03;7.33;;;4.70;92.50;;;;;;5065997;28;20478;-59
2023/03/27 05:43:44;;;;;;;20.40;6.50;;;4.90;92.60;;;;;;5066017;27;20486;-59
2023/03/27 05:46:12;;;;;;;19.63;5.90;;;4.90;92.20;;;;;;5066226;28;20810;-59
2023/03/27 05:48:39;;;;;;;28.13;8.17;;;4.90;92.30;;;;;;5068252;28;20505;-59
2023/03/27 05:51:08;;;;;;;15.90;6.10;;;5.00;92.60;;;;;;5064362;28;20826;-60
2023/03/27 05:53:35;;;;;;;20.63;6.37;;;5.00;92.80;;;;;;5062956;28;20521;-59
2023/03/27 05:56:02;;;;;;;18.60;6.67;;;5.10;92.50;;;;;;5075553;28;20639;-59
2023/03/27 05:58:28;;;;;;;22.93;7.43;;;5.10;92.40;;;;;;5072015;28;20486;-60
2023/03/27 06:00:55;;;;;;;27.30;7.97;;;4.10;91.70;;;;;;5061365;28;20489;-59
2023/03/27 06:03:24;;;;;;;20.23;7.13;;;5.10;92.10;;;;;;5076116;27;20829;-60
2023/03/27 06:05:51;;;;;;;25.10;8.33;;;5.10;92.10;;;;;;5083669;28;21087;-59
2023/03/27 06:08:18;;;;;;;41.67;8.47;;;5.20;92.70;;;;;;5068996;28;20482;-59
2023/03/27 06:10:44;;;;;;;33.03;9.20;;;5.20;92.20;;;;;;5051751;28;20542;-59
2023/03/27 06:13:13;;;;;;;20.07;6.37;;;5.30;92.30;;;;;;5076557;28;20679;-59
2023/03/27 06:15:41;;;;;;;33.87;8.13;;;5.30;92.60;;;;;;5062123;28;20470;-59
2023/03/27 06:18:09;;;;;;;16.93;5.93;;;5.40;92.50;;;;;;5071352;28;20486;-59
2023/03/27 06:20:37;;;;;;;21.97;9.00;;;;;;;;;;5082474;28;20510;-59
2023/03/27 06:23:06;;;;;;;14.00;6.60;;;6.10;92.50;;;;;;5068442;28;20655;-59
2023/03/27 06:25:35;;;;;;;16.93;7.43;;;5.80;92.30;;;;;;5067694;28;20506;-59
2023/03/27 06:28:05;;;;;;;13.60;5.77;;;6.10;92.30;;;;;;5068793;28;20477;-59
2023/03/27 06:30:32;;;;;;;22.90;9.30;;;6.80;93.50;;;;;;5080023;28;20660;-59
2023/03/27 06:33:01;;;;;;;27.83;9.83;;;7.60;92.10;;;;;;5074819;28;20470;-60
2023/03/27 06:35:31;;;;;;;28.27;5.83;;;8.80;91.00;;;;;;5071558;28;20490;-60
2023/03/27 06:38:01;;;;;;;19.40;8.73;;;9.50;90.00;;;;;;5088044;28;20970;-60
2023/03/27 06:40:30;;;;;;;15.33;7.20;;;10.30;89.40;;;;;;5056661;28;20467;-60
2023/03/27 06:42:58;;;;;;;18.37;5.80;;;11.40;85.00;;;;;;5064704;28;20558;-60
2023/03/27 06:45:27;;;;;;;11.17;5.60;;;11.80;82.20;;;;;;5066372;28;20474;-60
2023/03/27 06:47:55;;;;;;;12.90;8.00;;;;;;;;;;5075658;28;20490;-60
2023/03/27 06:50:23;;;;;;;14.83;5.60;;;13.20;81.50;;;;;;5069582;28;20967;-61
2023/03/27 06:52:49;;;;;;;17.57;8.00;;;13.60;79.20;;;;;;5069578;28;20593;-60
2023/03/27 06:55:20;;;;;;;11.77;4.70;;;14.20;78.30;;;;;;5078209;28;20530;-60
2023/03/27 06:57:49;;;;;;;17.30;6.63;;;15.00;78.30;;;;;;5088094;28;20848;-61
2023/03/27 07:00:18;;;;;;;17.20;6.50;;;15.10;74.80;;;;;;5073335;27;20485;-61
2023/03/27 07:02:46;;;;;;;12.47;6.50;;;15.40;74.00;;;;;;5084625;28;20515;-60
2023/03/27 07:05:13;;;;;;;15.43;5.67;;;15.80;73.50;;;;;;5078170;28;20546;-60
2023/03/27 07:07:40;;;;;;;10.20;5.03;;;15.70;72.10;;;;;;5098440;28;20473;-61
2023/03/27 07:10:08;;;;;;;20.43;4.70;;;16.00;69.20;;;;;;5068638;28;20560;-60
2023/03/27 07:12:36;;;;;;;12.53;5.37;;;15.90;69.60;;;;;;5054073;28;20505;-61
2023/03/27 07:15:05;;;;;;;11.10;5.90;;;15.30;67.50;;;;;;5066504;28;20511;-60
2023/03/27 07:17:32;;;;;;;14.00;4.90;;;14.30;69.70;;;;;;5091881;28;20998;-61
2023/03/27 07:19:59;;;;;;;13.63;7.90;;;14.00;71.50;;;;;;5076479;28;20703;-60
2023/03/27 07:22:26;;;;;;;12.57;6.37;;;14.40;75.60;;;;;;5075338;28;20488;-60
2023/03/27 07:24:52;;;;;;;17.23;6.47;;;14.50;72.70;;;;;;5088536;28;20470;-60
2023/03/27 07:27:19;;;;;;;6.83;4.90;;;13.80;71.90;;;;;;5097291;28;21491;-60
2023/03/27 07:29:47;;;;;;;15.87;7.90;;;13.40;72.20;;;;;;5093866;28;21119;-60
2023/03/27 07:32:14;;;;;;;21.63;6.43;;;11.80;72.50;;;;;;5083583;27;20542;-60
2023/03/27 07:34:41;;;;;;;13.23;6.93;;;11.10;74.90;;;;;;5069739;28;20486;-60
2023/03/27 07:37:07;;;;;;;16.07;6.57;;;10.50;76.30;;;;;;5092666;28;20568;-60
2023/03/27 07:39:35;;;;;;;21.23;6.30;;;;;;;;;;5099299;28;20485;-60
2023/03/27 07:42:01;;;;;;;13.57;6.93;;;9.60;79.10;;;;;;5096904;28;20473;-60
2023/03/27 07:44:28;;;;;;;19.60;6.93;;;9.40;81.50;;;;;;5091977;28;20494;-60
2023/03/27 07:46:56;;;;;;;24.63;7.93;;;9.30;81.10;;;;;;5070311;28;20477;-60
2023/03/27 07:49:23;;;;;;;10.83;5.17;;;9.30;82.00;;;;;;5076354;28;20501;-60
2023/03/27 07:51:50;;;;;;;25.27;11.20;;;12.00;83.50;;;;;;5076502;28;20481;-60
2023/03/27 07:54:17;;;;;;;44.07;7.57;;;10.10;81.60;;;;;;5076683;28;20985;-60
2023/03/27 07:56:43;;;;;;;15.07;6.70;;;10.50;82.30;;;;;;5070085;28;20489;-60
2023/03/27 07:59:10;;;;;;;14.93;5.93;;;11.00;83.30;;;;;;5089763;28;20484;-60
2023/03/27 08:01:37;;;;;;;17.40;5.60;;;11.40;79.10;;;;;;5071457;27;20671;-60
2023/03/27 08:04:05;;;;;;;20.17;5.90;;;11.70;79.30;;;;;;5082908;28;20899;-60
2023/03/27 08:06:32;;;;;;;19.70;7.40;;;11.80;78.40;;;;;;5084670;28;20996;-60
2023/03/27 08:08:59;;;;;;;15.33;5.97;;;11.80;75.60;;;;;;5061546;28;20513;-61
2023/03/27 08:11:25;;;;;;;11.07;5.43;;;11.60;76.40;;;;;;5069579;28;20860;-60
2023/03/27 08:13:52;;;;;;;25.53;10.33;;;11.60;78.00;;;;;;5073287;28;20716;-60
2023/03/27 08:16:19;;;;;;;18.70;4.97;;;11.60;77.60;;;;;;5064368;28;20548;-60
2023/03/27 08:18:48;;;;;;;20.73;10.47;;;11.70;78.60;;;;;;5078709;27;21065;-61
2023/03/27 08:21:17;;;;;;;17.40;7.17;;;11.80;77.90;;;;;;5077389;28;20977;-59
2023/03/27 08:23:44;;;;;;;21.03;7.23;;;11.50;75.70;;;;;;5087099;28;20485;-60
2023/03/27 08:26:12;;;;;;;14.53;5.60;;;11.50;77.60;;;;;;5074861;28;20474;-60
2023/03/27 08:28:39;;;;;;;11.07;6.10;;;11.50;78.80;;;;;;5066335;28;20489;-60
2023/03/27 08:31:11;;;;;;;15.17;5.27;;;11.70;78.20;;;;;;5078177;28;20486;-60
2023/03/27 08:33:38;;;;;;;15.97;5.60;;;11.60;76.30;;;;;;5057636;28;20491;-60
2023/03/27 08:36:06;;;;;;;11.10;5.07;;;11.80;75.90;;;;;;5064502;28;20480;-60
2023/03/27 08:38:38;;;;;;;13.10;5.93;;;11.90;79.20;;;;;;5075457;28;20486;-60
2023/03/27 08:41:06;;;;;;;16.87;5.77;;;12.20;76.20;;;;;;5071554;28;20587;-60
2023/03/27 08:43:38;;;;;;;7.70;4.10;;;12.30;75.20;;;;;;5062972;28;20478;-60
2023/03/27 08:46:08;;;;;;;9.33;4.90;;;12.10;75.90;;;;;;5074252;28;20723;-60
2023/03/27 08:48:40;;;;;;;20.43;6.40;;;11.80;75.10;;;;;;5079863;28;20504;-60
2023/03/27 08:51:11;;;;;;;12.93;7.30;;;11.40;76.20;;;;;;5052871;28;20538;-60
2023/03/27 08:53:45;;;;;;;16.20;5.93;;;11.40;77.60;;;;;;5086944;28;20464;-60
2023/03/27 08:56:14;;;;;;;10.93;3.40;;;11.60;79.90;;;;;;5051476;28;20489;-60
2023/03/27 08:58:41;;;;;;;11.57;5.90;;;11.80;77.80;;;;;;5079058;28;20482;-60
2023/03/27 09:01:13;;;;;;;8.60;4.93;;;12.10;78.30;;;;;;5064474;28;20474;-60
2023/03/27 09:03:47;;;;;;;10.97;4.07;;;12.30;77.80;;;;;;5068277;28;20482;-60
2023/03/27 09:06:23;;;;;;;9.57;4.80;;;12.40;78.80;;;;;;5072041;28;20472;-60
2023/03/27 09:09:03;;;;;;;23.73;6.80;;;12.70;78.60;;;;;;5069877;28;20551;-61
2023/03/27 09:11:41;;;;;;;20.10;5.67;;;12.50;73.90;;;;;;5071510;28;21037;-60
2023/03/27 09:15:04;;;;;;;13.30;4.60;;;12.70;76.70;;;;;;5068185;28;20837;-60
2023/03/27 09:17:34;;;;;;;12.60;4.87;;;12.60;76.70;;;;;;5069730;28;20552;-60
2023/03/27 09:20:06;;;;;;;12.57;6.67;;;12.60;76.80;;;;;;5069851;28;20758;-60
2023/03/27 09:22:40;;;;;;;11.33;4.97;;;12.70;77.10;;;;;;5074495;28;20482;-60
2023/03/27 09:25:20;;;;;;;8.47;5.87;;;12.90;77.10;;;;;;5074850;28;20725;-60
2023/03/27 09:27:49;;;;;;;19.57;7.13;;;12.70;74.00;;;;;;5059946;28;20612;-61
2023/03/27 09:30:21;;;;;;;14.33;6.37;;;12.60;75.90;;;;;;5058260;28;20825;-61
2023/03/27 09:32:50;;;;;;;15.07;7.70;;;12.30;76.50;;;;;;5060186;28;20470;-61
2023/03/27 09:35:19;;;;;;;10.17;6.00;;;12.00;75.70;;;;;;5068724;28;20855;-60
2023/03/27 09:37:47;;;;;;;15.60;6.37;;;12.00;80.00;;;;;;5076866;28;20848;-60
2023/03/27 09:40:23;;;;;;;10.07;4.70;;;12.20;78.80;;;;;;5075653;28;20482;-60
2023/03/27 09:42:53;;;;;;;16.17;7.23;;;12.20;77.70;;;;;;5053661;28;20541;-60
2023/03/27 09:45:21;;;;;;;7.67;4.30;;;12.40;72.50;;;;;;5078286;28;20486;-61
2023/03/27 09:47:56;;;;;;;10.33;5.90;;;12.60;76.70;;;;;;5047181;28;20569;-60
2023/03/27 09:50:28;;;;;;;8.37;4.93;;;12.50;74.60;;;;;;5083991;28;20478;-60
2023/03/27 09:53:08;;;;;;;21.27;7.93;;;12.50;73.20;;;;;;5057163;28;20478;-60
2023/03/27 09:55:48;;;;;;;7.60;4.70;;;12.40;73.70;;;;;;5067014;28;20487;-60
2023/03/27 09:58:21;;;;;;;20.50;6.10;;;12.10;72.80;;;;;;5068135;28;20501;-61
2023/03/27 10:00:48;;;;;;;19.30;7.83;;;12.00;74.90;;;;;;5074927;28;20477;-61
2023/03/27 10:03:17;;;;;;;11.70;5.80;;;11.70;73.60;;;;;;5074193;28;20482;-60
2023/03/27 10:05:45;;;;;;;14.20;5.87;;;11.30;73.50;;;;;;5076890;28;20502;-61
2023/03/27 10:08:28;;;;;;;11.63;5.20;;;;;;;;;;5053719;28;20633;-61
2023/03/27 10:10:58;;;;;;;19.60;8.30;;;10.30;77.80;;;;;;5056398;28;20983;-60
2023/03/27 10:13:28;;;;;;;14.90;5.90;;;10.40;78.50;;;;;;5063554;28;20827;-59
2023/03/27 10:15:59;;;;;;;22.57;8.60;;;10.30;80.20;;;;;;5063641;28;20485;-61
2023/03/27 10:18:28;;;;;;;18.73;6.87;;;10.30;79.00;;;;;;5083415;28;20500;-60
2023/03/27 10:20:58;;;;;;;24.23;9.60;;;10.30;76.80;;;;;;5068081;28;20490;-59
2023/03/27 10:23:26;;;;;;;11.57;3.93;;;10.30;76.50;;;;;;5070345;28;20570;-60
2023/03/27 10:25:58;;;;;;;21.20;8.10;;;10.40;77.80;;;;;;5079475;28;20478;-60
2023/03/27 10:28:28;;;;;;;11.00;4.30;;;10.50;77.60;;;;;;5071117;28;20486;-60
2023/03/27 10:30:59;;;;;;;22.93;9.13;;;10.50;78.10;;;;;;5071942;28;20481;-61
2023/03/27 10:33:31;;;;;;;12.13;5.17;;;10.50;77.60;;;;;;5077778;28;20469;-60
2023/03/27 10:35:58;;;;;;;15.50;6.53;;;10.80;77.70;;;;;;5051299;28;20478;-60
2023/03/27 10:38:26;;;;;;;11.77;5.90;;;11.10;80.10;;;;;;5066352;28;20896;-61
2023/03/27 10:40:55;;;;;;;30.77;9.70;;;11.20;79.30;;;;;;5076665;28;20514;-61
2023/03/27 10:43:32;;;;;;;17.03;4.77;;;11.20;76.00;;;;;;5078251;28;20477;-60
2023/03/27 10:46:03;;;;;;;12.40;6.83;;;11.20;75.30;;;;;;5066396;28;20482;-60
2023/03/27 10:48:41;;;;;;;11.37;5.43;;;13.10;78.70;;;;;;5067149;28;20852;-60
2023/03/27 10:51:21;;;;;;;9.00;3.87;;;11.00;75.80;;;;;;5071771;28;21183;-61
2023/03/27 10:53:54;;;;;;;20.33;7.60;;;10.90;76.60;;;;;;5070873;28;20474;-61
2023/03/27 10:56:26;;;;;;;14.30;5.77;;;11.20;79.90;;;;;;5062559;28;20481;-60
2023/03/27 10:58:59;;;;;;;20.10;7.80;;;11.40;79.70;;;;;;5072568;28;20531;-61
2023/03/27 11:01:31;;;;;;;17.13;6.67;;;11.40;79.30;;;;;;5084141;28;20477;-61
2023/03/27 11:04:02;;;;;;;24.10;9.73;;;11.50;80.60;;;;;;5072080;28;20562;-61
2023/03/27 11:06:34;;;;;;;17.93;5.30;;;11.80;79.00;;;;;;5051115;28;20483;-60
2023/03/27 11:09:05;;;;;;;14.13;5.47;;;12.00;77.40;;;;;;5064045;28;20494;-61
2023/03/27 11:11:36;;;;;;;9.53;5.33;;;11.60;77.00;;;;;;5061257;28;20470;-61
2023/03/27 11:14:11;;;;;;;10.47;5.83;;;9.80;76.90;;;;;;5060077;28;20483;-60
2023/03/27 11:16:42;;;;;;;10.10;4.40;;;11.00;75.80;;;;;;5071906;28;20531;-60
2023/03/27 11:19:28;;;;;;;12.63;5.40;;;10.80;74.70;;;;;;5075604;28;20501;-61
2023/03/27 11:21:58;;;;;;;24.07;8.63;;;10.70;76.50;;;;;;5055243;28;21533;-61
2023/03/27 11:24:30;;;;;;;9.40;4.13;;;10.70;76.80;;;;;;5065721;28;20495;-61
2023/03/27 11:27:03;;;;;;;18.53;8.40;;;10.70;77.70;;;;;;5058686;28;20880;-61
2023/03/27 11:29:39;;;;;;;15.43;4.77;;;10.50;76.20;;;;;;5070249;28;20469;-60
2023/03/27 11:32:13;;;;;;;14.67;4.80;;;10.60;75.80;;;;;;5049957;28;20477;-61
2023/03/27 11:34:47;;;;;;;27.37;6.10;;;10.80;76.00;;;;;;5082418;28;20470;-61
2023/03/27 11:37:20;;;;;;;15.63;5.40;;;11.00;76.60;;;;;;5071811;28;20481;-61
2023/03/27 11:39:52;;;;;;;20.70;6.87;;;11.30;77.80;;;;;;5066075;28;20478;-61
2023/03/27 11:42:22;;;;;;;11.70;4.90;;;11.30;74.40;;;;;;5068703;28;20513;-60
2023/03/27 11:44:51;;;;;;;27.90;10.97;;;11.40;74.80;;;;;;5075397;27;20566;-61
2023/03/27 11:47:40;;;;;;;15.20;5.67;;;11.60;75.30;;;;;;5086144;28;20742;-60
2023/03/27 11:50:22;;;;;;;12.20;5.53;;;11.60;73.30;;;;;;5067378;28;20470;-61
2023/03/27 11:52:58;;;;;;;20.73;7.70;;;11.30;72.40;;;;;;5074354;28;20481;-60
2023/03/27 11:55:33;;;;;;;14.00;5.90;;;11.20;75.40;;;;;;5080803;28;21043;-60
2023/03/27 11:58:14;;;;;;;16.90;6.73;;;11.20;74.20;;;;;;5062712;28;20989;-61
2023/03/27 12:00:49;;;;;;;18.53;6.50;;;11.50;78.80;;;;;;5057403;28;20574;-60
2023/03/27 12:03:51;;;;;;;14.53;5.87;;;11.70;76.00;;;;;;5065947;28;21110;-61
2023/03/27 12:06:28;;;;;;;21.27;5.80;;;11.60;72.80;;;;;;5051187;28;20566;-60
2023/03/27 12:09:14;;;;;;;19.53;8.43;;;11.40;73.50;;;;;;5063814;28;20481;-60
2023/03/27 12:11:44;;;;;;;11.00;5.27;;;9.10;73.30;;;;;;5080393;28;20478;-60
2023/03/27 12:14:31;;;;;;;18.27;7.53;;;11.00;74.30;;;;;;5067805;28;20489;-60
2023/03/27 12:17:12;;;;;;;22.93;8.73;;;10.70;77.50;;;;;;5067894;28;20527;-60
2023/03/27 12:20:10;;;;;;;12.70;5.53;;;10.50;78.00;;;;;;5076841;28;20497;-60
2023/03/27 12:22:50;;;;;;;14.97;5.57;;;10.60;80.90;;;;;;5064411;28;20486;-61
2023/03/27 12:25:46;;;;;;;15.40;6.20;;;10.60;77.20;;;;;;5065845;28;20477;-60
2023/03/27 12:28:29;;;;;;;27.07;5.50;;;12.70;78.50;;;;;;5048031;28;20489;-61
2023/03/27 12:31:03;;;;;;;26.83;10.40;;;10.60;75.00;;;;;;5061570;28;20474;-61
2023/03/27 12:33:41;;;;;;;9.30;3.50;;;11.00;81.00;;;;;;5068855;28;20569;-60
2023/03/27 12:36:13;;;;;;;12.13;5.57;;;11.20;80.00;;;;;;5076368;28;21298;-60
2023/03/27 12:38:41;;;;;;;15.30;5.40;;;11.50;76.80;;;;;;5072602;28;21075;-61
2023/03/27 12:41:20;;;;;;;11.13;5.17;;;11.80;78.20;;;;;;5066195;28;20474;-61
2023/03/27 12:43:48;;;;;;;17.83;7.13;;;11.80;74.70;;;;;;5073737;28;20542;-61
2023/03/27 12:46:30;;;;;;;13.10;4.37;;;12.00;78.20;;;;;;5074123;28;20522;-61
2023/03/27 12:49:04;;;;;;;23.10;9.07;;;11.90;76.60;;;;;;5063733;28;20481;-60
2023/03/27 12:51:42;;;;;;;21.80;6.80;;;12.00;79.10;;;;;;5074639;28;20483;-61
2023/03/27 12:54:26;;;;;;;10.50;4.90;;;12.00;81.20;;;;;;5043482;28;21029;-61
2023/03/27 12:57:03;;;;;;;29.57;11.50;;;12.20;81.20;;;;;;5066988;28;20548;-60
2023/03/27 12:59:32;;;;;;;14.00;5.50;;;12.30;80.90;;;;;;5041686;28;20465;-60
2023/03/27 13:02:35;;;;;;;15.70;6.10;;;12.40;81.50;;;;;;5058055;28;21155;-60
2023/03/27 13:05:38;;;;;;;14.70;4.80;;;12.20;79.00;;;;;;5071222;28;20520;-61